Time;durP1;ratioP1;P1;durP2;ratioP2;P2;SDS_P1;SDS_P2;PMS_P1;PMS_P2;Temp;Humidity;BMP_temperature;BMP_pressure;BME280_temperature;BME280_humidity;BME280_pressure;Samples;Min_cycle;Max_cycle;Signal;HPM_P1;HPM_P2
2023/02/25 00:00:20;;;;;;;;;;;4.60;1.00;;;;;;5076223;28;19958;-75
2023/02/25 00:03:14;;;;;;;;;;;4.70;1.00;;;;;;5076456;28;19908;-75
2023/02/25 00:05:43;;;;;;;;;;;4.60;1.00;;;;;;5076235;28;19905;-76
2023/02/25 00:14:14;;;;;;;;;;;4.50;1.00;;;;;;5073955;28;19972;-79
2023/02/25 00:23:19;;;;;;;;;;;4.60;1.00;;;;;;5067319;28;19915;-79
2023/02/25 00:31:51;;;;;;;;;;;4.40;1.00;;;;;;5075310;28;19957;-79
2023/02/25 00:37:43;;;;;;;;;;;4.50;1.00;;;;;;5074582;28;19916;-79
2023/02/25 00:49:18;;;;;;;;;;;4.90;1.00;;;;;;5065446;28;19950;-79
2023/02/25 00:54:47;;;;;;;;;;;5.00;1.00;;;;;;5070678;28;19918;-79
2023/02/25 01:00:15;;;;;;;;;;;5.10;1.00;;;;;;5080972;28;20311;-79
2023/02/25 01:08:47;;;;;;;;;;;5.20;1.00;;;;;;5055499;28;20375;-76
2023/02/25 01:11:23;;;;;;;;;;;5.30;1.00;;;;;;5069990;28;19905;-76
2023/02/25 01:13:57;;;;;;;;;;;5.30;1.00;;;;;;5075129;28;19987;-76
2023/02/25 01:20:05;;;;;;;;;;;5.30;1.00;;;;;;5074811;28;20381;-75
2023/02/25 01:23:01;;;;;;;;;;;5.30;1.00;;;;;;5063019;28;19955;-76
2023/02/25 01:25:43;;;;;;;;;;;5.40;1.00;;;;;;5070083;28;19909;-76
2023/02/25 01:28:44;;;;;;;;;;;5.40;1.00;;;;;;5054744;28;19905;-76
2023/02/25 01:31:43;;;;;;;;;;;5.40;1.00;;;;;;5063483;28;19908;-75
2023/02/25 01:34:31;;;;;;;;;;;5.50;1.00;;;;;;5074882;28;19911;-76
2023/02/25 01:40:00;;;;;;;;;;;5.50;1.00;;;;;;5074570;28;19955;-78
2023/02/25 01:45:43;;;;;;;;;;;5.30;1.00;;;;;;5074089;28;20050;-79
2023/02/25 01:48:31;;;;;;;;;;;5.30;1.00;;;;;;5074672;28;19951;-79
2023/02/25 02:03:14;;;;;;;;;;;5.20;1.00;;;;;;5067530;28;19963;-79
2023/02/25 02:08:43;;;;;;;;;;;5.30;1.00;;;;;;5071025;28;19959;-79
2023/02/25 02:14:15;;;;;;;;;;;5.30;1.00;;;;;;5073796;28;19958;-79
2023/02/25 02:17:07;;;;;;;;;;;5.30;1.00;;;;;;5077875;28;19908;-79
2023/02/25 02:22:42;;;;;;;;;;;5.40;1.00;;;;;;5073896;28;19977;-75
2023/02/25 02:28:25;;;;;;;;;;;5.30;1.00;;;;;;5073934;28;19912;-75
2023/02/25 02:31:13;;;;;;;;;;;5.30;1.00;;;;;;5073351;28;19912;-75
2023/02/25 02:33:57;;;;;;;;;;;5.30;1.00;;;;;;5073579;28;20347;-75
2023/02/25 02:36:42;;;;;;;;;;;5.40;1.00;;;;;;5074088;28;19904;-76
2023/02/25 02:39:19;;;;;;;;;;;5.50;1.00;;;;;;5074100;28;19958;-75
2023/02/25 02:42:08;;;;;;;;;;;5.50;1.00;;;;;;5072068;28;19908;-76
2023/02/25 02:44:37;;;;;;;;;;;5.40;1.00;;;;;;5055386;28;20402;-76
2023/02/25 02:47:07;;;;;;;;;;;5.50;1.00;;;;;;5073401;28;19927;-76
2023/02/25 02:49:39;;;;;;;;;;;5.40;1.00;;;;;;5060975;28;19995;-75
2023/02/25 02:52:13;;;;;;;;;;;5.40;1.00;;;;;;5069657;28;20283;-76
2023/02/25 03:00:54;;;;;;;;;;;5.40;1.00;;;;;;5073243;28;19949;-79
2023/02/25 03:09:58;;;;;;;;;;;5.40;1.00;;;;;;5073155;28;19914;-76
2023/02/25 03:12:55;;;;;;;;;;;5.40;1.00;;;;;;5000459;28;19928;-75
2023/02/25 03:18:36;;;;;;;;;;;5.40;1.00;;;;;;5011666;28;19916;-75
2023/02/25 03:27:39;;;;;;;;;;;5.40;1.00;;;;;;5031533;28;19996;-79
2023/02/25 03:33:13;;;;;;;;;;;5.30;1.00;;;;;;4967676;28;19940;-78
2023/02/25 03:45:23;;;;;;;;;;;5.30;1.00;;;;;;4985505;28;19913;-79
2023/02/25 03:51:00;;;;;;;;;;;5.40;1.00;;;;;;5009060;28;19924;-80
2023/02/25 03:53:33;;;;;;;;;;;5.40;1.00;;;;;;5009207;28;19909;-78
2023/02/25 03:59:01;;;;;;;;;;;5.40;1.00;;;;;;4994905;28;20045;-78
2023/02/25 04:05:01;;;;;;;;;;;5.40;1.00;;;;;;5014481;28;20335;-78
2023/02/25 04:08:01;;;;;;;;;;;5.40;1.00;;;;;;5068910;28;19908;-79
2023/02/25 04:13:30;;;;;;;;;;;5.40;1.00;;;;;;5065115;28;19931;-79
2023/02/25 04:22:32;;;;;;;;;;;5.30;1.00;;;;;;5076418;28;19955;-79
2023/02/25 04:25:13;;;;;;;;;;;5.30;1.00;;;;;;5076608;28;19915;-75
2023/02/25 04:28:01;;;;;;;;;;;5.30;1.00;;;;;;5076150;28;19904;-75
2023/02/25 04:31:01;;;;;;;;;;;5.20;1.00;;;;;;5066951;28;19951;-75
2023/02/25 04:33:31;;;;;;;;;;;5.30;1.00;;;;;;5064477;28;19908;-75
2023/02/25 04:36:01;;;;;;;;;;;5.30;1.00;;;;;;5062786;28;19909;-76
2023/02/25 04:41:33;;;;;;;;;;;5.30;1.00;;;;;;5057375;28;19919;-75
2023/02/25 04:47:13;;;;;;;;;;;5.20;1.00;;;;;;5075812;28;20155;-75
2023/02/25 04:49:43;;;;;;;;;;;5.30;1.00;;;;;;5060779;28;20051;-75
2023/02/25 04:52:19;;;;;;;;;;;5.20;1.00;;;;;;5066942;28;19927;-75
2023/02/25 04:54:49;;;;;;;;;;;5.10;1.00;;;;;;5058954;28;19951;-75
2023/02/25 04:57:31;;;;;;;;;;;5.10;1.00;;;;;;5073763;28;20050;-75
2023/02/25 05:03:00;;;;;;;;;;;4.80;1.00;;;;;;5074820;28;19915;-76
2023/02/25 05:05:55;;;;;;;;;;;4.80;1.00;;;;;;5074920;28;19994;-76
2023/02/25 05:11:31;;;;;;;;;;;4.80;1.00;;;;;;5067611;28;19911;-79
2023/02/25 05:20:10;;;;;;;;;;;4.70;1.00;;;;;;5062828;28;19915;-79
2023/02/25 05:23:01;;;;;;;;;;;4.70;1.00;;;;;;5075078;28;19904;-78
2023/02/25 05:25:27;;;;;;;;;;;4.70;1.00;;;;;;5083452;28;19930;-79
2023/02/25 05:40:08;;;;;;;;;;;4.50;1.00;;;;;;5075171;28;19915;-75
2023/02/25 05:43:01;;;;;;;;;;;4.50;1.00;;;;;;5074362;28;19905;-75
2023/02/25 05:45:31;;;;;;;;;;;4.40;1.00;;;;;;5074796;28;20351;-75
2023/02/25 05:48:01;;;;;;;;;;;4.40;1.00;;;;;;5063871;28;20026;-75
2023/02/25 05:50:55;;;;;;;;;;;4.40;1.00;;;;;;5085457;28;19911;-75
2023/02/25 05:53:32;;;;;;;;;;;4.30;1.00;;;;;;5069472;28;19912;-75
2023/02/25 05:56:31;;;;;;;;;;;4.40;1.00;;;;;;5074374;28;19904;-79
2023/02/25 06:02:31;;;;;;;;;;;4.60;1.00;;;;;;5070637;28;19931;-79
2023/02/25 06:11:31;;;;;;;;;;;4.60;1.00;;;;;;5074213;28;21940;-84
2023/02/25 06:14:31;;;;;;;;;;;4.60;1.00;;;;;;5069581;28;19931;-84
2023/02/25 06:17:31;;;;;;;;;;;4.60;1.00;;;;;;5059855;28;20028;-85
2023/02/25 06:23:07;;;;;;;;;;;4.70;1.00;;;;;;5061898;28;19912;-84
2023/02/25 06:26:01;;;;;;;;;;;4.80;1.00;;;;;;5056439;28;19904;-84
2023/02/25 06:31:49;;;;;;;;;;;4.80;1.00;;;;;;5073941;28;19954;-84
2023/02/25 06:37:18;;;;;;;;;;;4.80;1.00;;;;;;5074302;28;19911;-84
2023/02/25 06:42:47;;;;;;;;;;;4.80;1.00;;;;;;5074527;28;19911;-85
2023/02/25 06:51:19;;;;;;;;;;;4.90;1.00;;;;;;5053918;28;19960;-85
2023/02/25 07:03:11;;;;;;;;;;;5.10;1.00;;;;;;5073175;28;19954;-84
2023/02/25 07:05:49;;;;;;;;;;;5.10;1.00;;;;;;5055805;28;19904;-84
2023/02/25 07:11:18;;;;;;;;;;;5.10;1.00;;;;;;5077820;28;19912;-84
2023/02/25 07:13:49;;;;;;;;;;;5.20;1.00;;;;;;5059638;28;19908;-84
2023/02/25 07:16:33;;;;;;;;;;;5.10;1.00;;;;;;5059706;28;19915;-84
2023/02/25 07:19:31;;;;;;;;;;;5.20;1.00;;;;;;5059932;28;19904;-86
2023/02/25 07:22:31;;;;;;;;;;;5.30;1.00;;;;;;5068174;28;19935;-85
2023/02/25 07:31:14;;;;;;;;;;;5.50;1.00;;;;;;5072034;28;19959;-84
2023/02/25 07:33:50;;;;;;;;;;;5.40;1.00;;;;;;5060670;28;19908;-73
2023/02/25 07:36:19;;;;;;;;;;;5.50;1.00;;;;;;5073116;28;19908;-73
2023/02/25 07:38:47;;;;;;;;;;;5.60;1.00;;;;;;5074685;28;19935;-72
2023/02/25 07:41:14;;;;;;;;;;;5.70;1.00;;;;;;5077175;28;20315;-71
2023/02/25 07:43:39;;;;;;;;;;;5.80;1.00;;;;;;5067009;28;20000;-71
2023/02/25 07:46:05;;;;;;;;;;;5.80;1.00;;;;;;5075517;28;19999;-71
2023/02/25 07:48:31;;;;;;;;;;;5.70;1.00;;;;;;5075160;28;20360;-71
2023/02/25 07:51:03;;;;;;;;;;;5.70;1.00;;;;;;5074127;28;19912;-71
2023/02/25 07:53:29;;;;;;;;;;;5.70;1.00;;;;;;5073766;28;19912;-71
2023/02/25 07:55:56;;;;;;;;;;;5.70;1.00;;;;;;5070843;28;19950;-72
2023/02/25 07:58:21;;;;;;;;;;;5.70;1.00;;;;;;5067181;28;19936;-72
2023/02/25 08:00:47;;;;;;;;;;;5.80;1.00;;;;;;5068676;28;19912;-72
2023/02/25 08:03:12;;;;;;;;;;;5.80;1.00;;;;;;5079930;28;19912;-72
2023/02/25 08:05:38;;;;;;;;;;;5.70;1.00;;;;;;5072294;28;20342;-72
2023/02/25 08:08:04;;;;;;;;;;;5.80;1.00;;;;;;5075572;28;19908;-72
2023/02/25 08:10:30;;;;;;;;;;;5.90;1.00;;;;;;5069446;28;20031;-71
2023/02/25 08:12:56;;;;;;;;;;;5.80;1.00;;;;;;5069874;28;19936;-71
2023/02/25 08:15:21;;;;;;;;;;;5.80;1.00;;;;;;5070551;28;19916;-71
2023/02/25 08:17:50;;;;;;;;;;;5.80;1.00;;;;;;5069936;28;19908;-71
2023/02/25 08:20:20;;;;;;;;;;;5.70;1.00;;;;;;5073561;28;19951;-71
2023/02/25 08:22:45;;;;;;;;;;;5.70;1.00;;;;;;5067265;28;20351;-71
2023/02/25 08:25:11;;;;;;;;;;;5.60;1.00;;;;;;5069587;28;19914;-71
2023/02/25 08:27:37;;;;;;;;;;;5.60;1.00;;;;;;5073339;28;20338;-71
2023/02/25 08:30:05;;;;;;;;;;;5.60;1.00;;;;;;5073544;28;19915;-72
2023/02/25 08:32:38;;;;;;;;;;;5.80;1.00;;;;;;5065008;28;19905;-72
2023/02/25 08:35:25;;;;;;;;;;;5.90;1.00;;;;;;5067371;28;19904;-78
2023/02/25 08:38:01;;;;;;;;;;;5.80;1.00;;;;;;5070891;28;19912;-78
2023/02/25 08:43:32;;;;;;;;;;;5.90;1.00;;;;;;5066966;28;19954;-78
2023/02/25 08:49:00;;;;;;;;;;;6.10;1.00;;;;;;5074796;28;20406;-79
2023/02/25 08:52:01;;;;;;;;;;;6.70;1.00;;;;;;5081921;28;19912;-78
2023/02/25 08:55:01;;;;;;;;;;;6.90;1.00;;;;;;5070661;28;19915;-79
2023/02/25 08:57:37;;;;;;;;;;;7.00;1.00;;;;;;5048863;28;19931;-78
2023/02/25 09:06:32;;;;;;;;;;;7.00;1.00;;;;;;5075161;28;20309;-79
2023/02/25 09:09:32;;;;;;;;;;;7.00;1.00;;;;;;5065792;28;19904;-78
2023/02/25 09:12:08;;;;;;;;;;;7.20;1.00;;;;;;5064020;28;19908;-74
2023/02/25 09:14:34;;;;;;;;;;;7.50;1.00;;;;;;5075962;28;19946;-74
2023/02/25 09:17:03;;;;;;;;;;;7.60;1.00;;;;;;5073812;28;19913;-74
2023/02/25 09:19:32;;;;;;;;;;;7.70;1.00;;;;;;5088484;28;19999;-74
2023/02/25 09:22:32;;;;;;;;;;;7.80;1.00;;;;;;5064832;28;19909;-76
2023/02/25 09:25:31;;;;;;;;;;;7.80;1.00;;;;;;5063127;28;19904;-76
2023/02/25 09:28:25;;;;;;;;;;;7.90;1.00;;;;;;5074943;28;19931;-79
2023/02/25 09:36:57;;;;;;;;;;;8.00;1.00;;;;;;5074558;28;19967;-78
2023/02/25 09:45:30;;;;;;;;;;;8.10;1.00;;;;;;5069338;28;19963;-79
2023/02/25 09:48:29;;;;;;;;;;;8.10;1.00;;;;;;5051867;28;20312;-79
2023/02/25 09:51:22;;;;;;;;;;;8.00;1.00;;;;;;4992979;28;19965;-78
2023/02/25 09:57:09;;;;;;;;;;;8.10;1.00;;;;;;4993138;28;19912;-78
2023/02/25 10:02:42;;;;;;;;;;;8.10;1.00;;;;;;4992748;28;20345;-78
2023/02/25 10:05:17;;;;;;;;;;;8.10;1.00;;;;;;4992750;28;19933;-78
2023/02/25 10:08:01;;;;;;;;;;;8.20;1.00;;;;;;4992865;28;19952;-78
2023/02/25 10:10:48;;;;;;;;;;;8.10;1.00;;;;;;4992852;28;19964;-78
2023/02/25 10:13:31;;;;;;;;;;;8.10;1.00;;;;;;4993005;28;19944;-78
2023/02/25 10:16:17;;;;;;;;;;;8.10;1.00;;;;;;4994140;28;20004;-78
2023/02/25 10:19:02;;;;;;;;;;;8.10;1.00;;;;;;4992703;28;19948;-79
2023/02/25 10:24:50;;;;;;;;;;;8.60;1.00;;;;;;4992219;28;19921;-78
2023/02/25 10:27:23;;;;;;;;;;;8.70;1.00;;;;;;5056131;28;19953;-78
2023/02/25 10:29:54;;;;;;;;;;;8.60;1.00;;;;;;5053731;28;19908;-78
2023/02/25 10:32:25;;;;;;;;;;;8.50;1.00;;;;;;5069523;28;19904;-78
2023/02/25 10:35:12;;;;;;;;;;;8.80;1.00;;;;;;5073762;28;20350;-78
2023/02/25 10:38:07;;;;;;;;;;;8.90;1.00;;;;;;5087012;28;19904;-78
2023/02/25 10:40:44;;;;;;;;;;;9.00;1.00;;;;;;5071377;28;19915;-78
2023/02/25 10:43:43;;;;;;;;;;;9.20;1.00;;;;;;5070460;28;19915;-79
2023/02/25 10:49:19;;;;;;;;;;;9.40;1.00;;;;;;5064027;28;19950;-79
2023/02/25 10:58:13;;;;;;;;;;;9.00;1.00;;;;;;5056798;28;19916;-78
2023/02/25 11:00:52;;;;;;;;;;;9.40;1.00;;;;;;5064509;28;19908;-78
2023/02/25 11:03:35;;;;;;;;;;;9.40;1.00;;;;;;5079493;28;20343;-78
2023/02/25 11:06:32;;;;;;;;;;;9.40;1.00;;;;;;5072698;28;19905;-78
2023/02/25 11:09:28;;;;;;;;;;;9.40;1.00;;;;;;5077236;28;20299;-79
2023/02/25 11:11:57;;;;;;;;;;;9.20;1.00;;;;;;5012014;28;19916;-78
2023/02/25 11:14:33;;;;;;;;;;;8.90;1.00;;;;;;5016308;28;19971;-76
2023/02/25 11:17:26;;;;;;;;;;;8.80;1.00;;;;;;5014744;28;19948;-76
2023/02/25 11:20:00;;;;;;;;;;;8.80;1.00;;;;;;5014965;28;19917;-77
2023/02/25 11:22:45;;;;;;;;;;;8.90;1.00;;;;;;5012787;28;20377;-76
2023/02/25 11:25:31;;;;;;;;;;;8.90;1.00;;;;;;5002585;28;20398;-76
2023/02/25 11:28:31;;;;;;;;;;;8.90;1.00;;;;;;5014742;28;19925;-76
2023/02/25 11:31:18;;;;;;;;;;;8.90;1.00;;;;;;5015578;28;20389;-76
2023/02/25 11:33:58;;;;;;;;;;;8.90;1.00;;;;;;5015187;28;19905;-76
2023/02/25 11:36:38;;;;;;;;;;;8.80;1.00;;;;;;5002125;28;19905;-76
2023/02/25 11:39:33;;;;;;;;;;;8.60;1.00;;;;;;5008510;28;19964;-75
2023/02/25 11:42:31;;;;;;;;;;;8.50;1.00;;;;;;5015422;28;19905;-75
2023/02/25 11:45:15;;;;;;;;;;;8.30;1.00;;;;;;5013763;28;20250;-78
2023/02/25 11:48:13;;;;;;;;;;;8.20;1.00;;;;;;5030261;28;20336;-77
2023/02/25 11:50:44;;;;;;;;;;;8.00;1.00;;;;;;5076496;28;19913;-79
2023/02/25 11:53:14;;;;;;;;;;;7.90;1.00;;;;;;5076324;28;19909;-78
2023/02/25 11:59:01;;;;;;;;;;;7.50;1.00;;;;;;5076552;28;19946;-77
2023/02/25 12:01:50;;;;;;;;;;;7.70;1.00;;;;;;5086204;28;20003;-75
2023/02/25 12:04:31;;;;;;;;;;;7.80;1.00;;;;;;5077301;28;19904;-76
2023/02/25 12:10:26;;;;;;;;;;;8.00;1.00;;;;;;5062864;28;20038;-75
2023/02/25 12:13:03;;;;;;;;;;;7.90;1.00;;;;;;5059688;28;19909;-75
2023/02/25 12:15:49;;;;;;;;;;;8.00;1.00;;;;;;5063940;28;19909;-75
2023/02/25 12:18:45;;;;;;;;;;;8.00;1.00;;;;;;5070701;28;19911;-79
2023/02/25 12:21:24;;;;;;;;;;;8.10;1.00;;;;;;5062748;28;19908;-75
2023/02/25 12:23:56;;;;;;;;;;;8.30;1.00;;;;;;5068610;28;19904;-75
2023/02/25 12:26:29;;;;;;;;;;;8.60;1.00;;;;;;5074916;28;20241;-75
2023/02/25 12:29:07;;;;;;;;;;;8.80;1.00;;;;;;5070596;28;20360;-76
2023/02/25 12:38:06;;;;;;;;;;;8.90;1.00;;;;;;5067680;28;20062;-76
2023/02/25 12:40:34;;;;;;;;;;;9.00;1.00;;;;;;5074328;28;20414;-75
2023/02/25 12:43:20;;;;;;;;;;;8.80;1.00;;;;;;5074061;28;20240;-76
2023/02/25 12:45:56;;;;;;;;;;;8.50;1.00;;;;;;5076157;28;19944;-76
2023/02/25 12:48:36;;;;;;;;;;;8.50;1.00;;;;;;5075898;28;19931;-76
2023/02/25 12:51:20;;;;;;;;;;;8.60;1.00;;;;;;5075652;28;19999;-76
2023/02/25 12:54:03;;;;;;;;;;;8.40;1.00;;;;;;5075456;28;19915;-75
2023/02/25 12:56:32;;;;;;;;;;;8.20;1.00;;;;;;5066065;28;19910;-75
2023/02/25 12:59:22;;;;;;;;;;;8.00;1.00;;;;;;5075200;28;20291;-75
2023/02/25 13:02:14;;;;;;;;;;;7.90;1.00;;;;;;5075285;28;19912;-78
2023/02/25 13:05:01;;;;;;;;;;;7.80;1.00;;;;;;5075233;28;19908;-78
2023/02/25 13:07:52;;;;;;;;;;;7.60;1.00;;;;;;5064129;28;19908;-78
2023/02/25 13:13:45;;;;;;;;;;;8.00;1.00;;;;;;5074800;28;19904;-78
2023/02/25 13:16:32;;;;;;;;;;;8.00;1.00;;;;;;5075558;28;19911;-76
2023/02/25 13:19:26;;;;;;;;;;;8.30;1.00;;;;;;5069275;28;19908;-76
2023/02/25 13:22:13;;;;;;;;;;;8.70;1.00;;;;;;5073011;28;19908;-76
2023/02/25 13:24:46;;;;;;;;;;;8.90;1.00;;;;;;5074501;28;19908;-76
2023/02/25 13:27:40;;;;;;;;;;;8.80;1.00;;;;;;5074802;28;19982;-76
2023/02/25 13:30:24;;;;;;;;;;;9.00;1.00;;;;;;5074228;28;19957;-75
2023/02/25 13:32:56;;;;;;;;;;;9.00;1.00;;;;;;5074596;28;19908;-77
2023/02/25 13:35:32;;;;;;;;;;;8.60;1.00;;;;;;5060956;28;19904;-76
2023/02/25 13:38:21;;;;;;;;;;;8.40;1.00;;;;;;5063581;28;19905;-78
2023/02/25 13:41:14;;;;;;;;;;;8.20;1.00;;;;;;5073939;28;19927;-76
2023/02/25 13:43:44;;;;;;;;;;;8.40;1.00;;;;;;5073615;28;20034;-76
2023/02/25 13:46:44;;;;;;;;;;;8.60;1.00;;;;;;5075990;28;19916;-76
2023/02/25 13:49:15;;;;;;;;;;;8.80;1.00;;;;;;5061398;28;19947;-76
2023/02/25 13:52:00;;;;;;;;;;;9.20;1.00;;;;;;5067724;28;19920;-74
2023/02/25 13:54:25;;;;;;;;;;;9.00;1.00;;;;;;5064680;28;19908;-73
2023/02/25 13:56:54;;;;;;;;;;;9.40;1.00;;;;;;5078969;28;19911;-75
2023/02/25 13:59:49;;;;;;;;;;;9.70;1.00;;;;;;5070743;28;19912;-74
2023/02/25 14:02:20;;;;;;;;;;;9.90;1.00;;;;;;5070938;28;19917;-74
2023/02/25 14:04:57;;;;;;;;;;;9.90;1.00;;;;;;5067458;28;20294;-73
2023/02/25 14:07:41;;;;;;;;;;;9.80;1.00;;;;;;5068500;28;20314;-74
2023/02/25 14:10:32;;;;;;;;;;;9.90;1.00;;;;;;5061407;28;20397;-74
2023/02/25 14:13:22;;;;;;;;;;;9.60;1.00;;;;;;5074322;28;20004;-73
2023/02/25 14:15:54;;;;;;;;;;;9.20;1.00;;;;;;5064432;28;19909;-74
2023/02/25 14:18:35;;;;;;;;;;;8.80;1.00;;;;;;5071406;28;19915;-74
2023/02/25 14:21:34;;;;;;;;;;;8.40;1.00;;;;;;5074373;28;19908;-74
2023/02/25 14:24:00;;;;;;;;;;;7.80;1.00;;;;;;5000469;28;20257;-73
2023/02/25 14:26:32;;;;;;;;;;;7.40;1.00;;;;;;4995639;28;20000;-73
2023/02/25 14:29:08;;;;;;;;;;;7.00;1.00;;;;;;5009072;28;20005;-73
2023/02/25 14:31:42;;;;;;;;;;;6.60;1.00;;;;;;5008033;28;19909;-73
2023/02/25 14:34:08;;;;;;;;;;;6.30;1.00;;;;;;5017795;28;19905;-73
2023/02/25 14:36:53;;;;;;;;;;;6.30;1.00;;;;;;5012392;28;19910;-73
2023/02/25 14:42:46;;;;;;;;;;;5.90;1.00;;;;;;5002797;28;19912;-75
2023/02/25 14:45:11;;;;;;;;;;;5.80;1.00;;;;;;5009494;28;19905;-75
2023/02/25 14:47:58;;;;;;;;;;;5.70;1.00;;;;;;5015865;28;19996;-74
2023/02/25 14:50:32;;;;;;;;;;;5.60;1.00;;;;;;5001947;28;19992;-75
2023/02/25 14:53:25;;;;;;;;;;;5.60;1.00;;;;;;4999111;28;20312;-76
2023/02/25 14:56:20;;;;;;;;;;;5.60;1.00;;;;;;5011294;28;20312;-75
2023/02/25 14:58:56;;;;;;;;;;;5.60;1.00;;;;;;5014116;28;19992;-74
2023/02/25 15:01:32;;;;;;;;;;;5.60;1.00;;;;;;5072082;28;19916;-79
2023/02/25 15:10:32;;;;;;;;;;;6.00;1.00;;;;;;5071098;28;20305;-82
2023/02/25 15:13:15;;;;;;;;;;;6.20;1.00;;;;;;5055632;28;19909;-82
2023/02/25 15:16:02;;;;;;;;;;;6.40;1.00;;;;;;5073216;28;19916;-82
2023/02/25 15:18:46;;;;;;;;;;;6.60;1.00;;;;;;5073249;28;19927;-82
2023/02/25 15:21:45;;;;;;;;;;;6.60;1.00;;;;;;5053348;28;19909;-81
2023/02/25 15:24:44;;;;;;;;;;;6.70;1.00;;;;;;5060810;28;19905;-79
2023/02/25 15:27:32;;;;;;;;;;;6.70;1.00;;;;;;5073092;28;19931;-78
2023/02/25 15:30:16;;;;;;;;;;;6.70;1.00;;;;;;5069838;28;19915;-79
2023/02/25 15:33:14;;;;;;;;;;;6.70;1.00;;;;;;5068656;28;19905;-78
2023/02/25 15:35:44;;;;;;;;;;;6.60;1.00;;;;;;5071466;28;19909;-78
2023/02/25 15:38:32;;;;;;;;;;;6.50;1.00;;;;;;5069315;28;20299;-81
2023/02/25 15:41:02;;;;;;;;;;;6.40;1.00;;;;;;5066742;28;19908;-81
2023/02/25 15:43:38;;;;;;;;;;;6.30;1.00;;;;;;5079940;28;19939;-81
2023/02/25 15:46:07;;;;;;;;;;;6.20;1.00;;;;;;5054367;28;19943;-82
2023/02/25 15:48:45;;;;;;;;;;;6.10;1.00;;;;;;5062912;28;19966;-82
2023/02/25 15:51:34;;;;;;;;;;;6.00;1.00;;;;;;5074846;28;19912;-84
2023/02/25 15:54:34;;;;;;;;;;;5.90;1.00;;;;;;5059425;28;19909;-85
2023/02/25 15:57:20;;;;;;;;;;;5.90;1.00;;;;;;4986044;28;19948;-81
2023/02/25 16:00:14;;;;;;;;;;;6.10;1.00;;;;;;4994303;28;19945;-83
2023/02/25 16:02:45;;;;;;;;;;;6.30;1.00;;;;;;4985714;28;19906;-84
2023/02/25 16:05:32;;;;;;;;;;;6.80;1.00;;;;;;4978586;28;19910;-85
2023/02/25 16:08:12;;;;;;;;;;;6.90;1.00;;;;;;4976088;28;19938;-84
2023/02/25 16:10:46;;;;;;;;;;;6.90;1.00;;;;;;4960007;28;20091;-85
2023/02/25 16:13:32;;;;;;;;;;;6.80;1.00;;;;;;4966957;28;19941;-85
2023/02/25 16:16:03;;;;;;;;;;;6.60;1.00;;;;;;4976554;28;19997;-85
2023/02/25 16:18:47;;;;;;;;;;;6.40;1.00;;;;;;4969979;28;19913;-80
2023/02/25 16:21:18;;;;;;;;;;;6.20;1.00;;;;;;4994674;28;19914;-80
2023/02/25 16:23:44;;;;;;;;;;;6.10;1.00;;;;;;4981606;28;20014;-81
2023/02/25 16:26:44;;;;;;;;;;;5.90;1.00;;;;;;4982303;28;19933;-81
2023/02/25 16:29:32;;;;;;;;;;;5.80;1.00;;;;;;4981548;28;19906;-80
2023/02/25 16:32:34;;;;;;;;;;;5.60;1.00;;;;;;5010692;28;19943;-80
2023/02/25 16:35:14;;;;;;;;;;;5.50;1.00;;;;;;5011159;28;20274;-81
2023/02/25 16:38:14;;;;;;;;;;;5.40;1.00;;;;;;5028977;28;19911;-82
2023/02/25 16:41:14;;;;;;;;;;;5.30;1.00;;;;;;5033156;28;20098;-81
2023/02/25 16:44:02;;;;;;;;;;;5.30;1.00;;;;;;5046537;28;19927;-80
2023/02/25 16:47:02;;;;;;;;;;;5.30;1.00;;;;;;5045770;28;19979;-80
2023/02/25 16:49:30;;;;;;;;;;;5.20;1.00;;;;;;5031725;28;20442;-80
2023/02/25 16:52:02;;;;;;;;;;;5.10;1.00;;;;;;5033431;28;19913;-82
2023/02/25 16:54:37;;;;;;;;;;;5.10;1.00;;;;;;5017078;28;19936;-81
2023/02/25 16:57:35;;;;;;;;;;;5.10;1.00;;;;;;5033537;28;19909;-79
2023/02/25 17:00:13;;;;;;;;;;;5.00;1.00;;;;;;4972250;28;19914;-79
2023/02/25 17:02:45;;;;;;;;;;;5.00;1.00;;;;;;4973344;28;19913;-78
2023/02/25 17:05:32;;;;;;;;;;;4.90;1.00;;;;;;4956253;28;20004;-79
2023/02/25 17:08:15;;;;;;;;;;;5.00;1.00;;;;;;4969005;28;20393;-82
2023/02/25 17:10:46;;;;;;;;;;;5.00;1.00;;;;;;5006104;28;20036;-81
2023/02/25 17:13:19;;;;;;;;;;;4.90;1.00;;;;;;4989426;28;19906;-81
2023/02/25 17:16:03;;;;;;;;;;;4.90;1.00;;;;;;4988365;28;20038;-80
2023/02/25 17:18:32;;;;;;;;;;;4.90;1.00;;;;;;5008920;28;19905;-85
2023/02/25 17:21:05;;;;;;;;;;;4.90;1.00;;;;;;5006422;28;20407;-86
2023/02/25 17:24:02;;;;;;;;;;;4.90;1.00;;;;;;4997451;28;19951;-82
2023/02/25 17:27:02;;;;;;;;;;;4.90;1.00;;;;;;5009745;28;19912;-82
2023/02/25 17:30:02;;;;;;;;;;;4.80;1.00;;;;;;5012047;28;19917;-81
2023/02/25 17:32:33;;;;;;;;;;;4.80;1.00;;;;;;5005601;28;19905;-84
2023/02/25 17:35:04;;;;;;;;;;;4.70;1.00;;;;;;5012121;28;20276;-81
2023/02/25 17:38:02;;;;;;;;;;;4.60;1.00;;;;;;5033469;28;19909;-83
2023/02/25 17:41:02;;;;;;;;;;;4.60;1.00;;;;;;5056738;28;19936;-82
2023/02/25 17:44:02;;;;;;;;;;;4.40;1.00;;;;;;5051697;28;19904;-81
2023/02/25 17:47:02;;;;;;;;;;;4.40;1.00;;;;;;5056212;28;19909;-82
2023/02/25 17:49:28;;;;;;;;;;;4.20;1.00;;;;;;5047698;28;20355;-81
2023/02/25 17:51:59;;;;;;;;;;;4.10;1.00;;;;;;5070554;28;20279;-79
2023/02/25 17:54:35;;;;;;;1.23;0.90;;;4.00;1.00;;;;;;5073781;28;20417;-80
2023/02/25 17:57:11;;;;;;;1.37;0.90;;;4.00;1.00;;;;;;5073844;28;20178;-79
2023/02/25 18:03:52;;;;;;;1.47;0.80;;;3.90;1.00;;;;;;5067179;28;20195;-79
2023/02/25 18:07:02;;;;;;;1.20;1.10;;;3.80;1.00;;;;;;4972582;28;20529;-80
2023/02/25 18:09:37;;;;;;;2.97;1.00;;;3.70;1.00;;;;;;4973051;28;20537;-88
2023/02/25 18:12:34;;;;;;;1.27;0.93;;;3.60;1.00;;;;;;4957963;28;20488;-88
2023/02/25 18:15:32;;;;;;;0.83;0.83;;;3.50;1.00;;;;;;4988786;28;20448;-88
2023/02/25 18:18:19;;;;;;;0.70;0.70;;;3.50;1.00;;;;;;4962269;28;20514;-88
2023/02/25 18:21:10;;;;;;;2.55;1.15;;;3.50;1.00;;;;;;4971640;28;20209;-86
2023/02/25 18:24:33;;;;;;;2.20;1.10;;;3.60;1.00;;;;;;4973030;28;20253;-86
2023/02/25 18:27:36;;;;;;;1.13;1.07;;;3.70;1.00;;;;;;4973409;28;20425;-84
2023/02/25 18:30:32;;;;;;;2.43;1.13;;;3.70;1.00;;;;;;4938113;29;20466;-84
2023/02/25 18:36:32;;;;;;;2.05;1.30;;;3.60;1.00;;;;;;4953625;29;20190;-79
2023/02/25 18:39:03;;;;;;;1.87;1.00;;;3.40;1.00;;;;;;4968081;28;20265;-79
2023/02/25 18:44:51;;;;;;;2.50;1.33;;;3.30;1.00;;;;;;5053460;28;20969;-81
2023/02/25 18:47:38;;;;;;;1.77;0.90;;;3.20;1.00;;;;;;5064199;28;20505;-81
2023/02/25 18:50:04;;;;;;;1.08;0.98;;;3.10;1.00;;;;;;5065292;28;20217;-82
2023/02/25 18:52:30;;;;;;;4.75;1.20;;;3.00;1.00;;;;;;5071501;28;20195;-81
2023/02/25 18:55:32;;;;;;;2.10;1.00;;;3.00;1.00;;;;;;5073428;28;20170;-82
2023/02/25 18:58:03;;;;;;;1.42;1.20;;;2.90;1.00;;;;;;5073583;28;20530;-81
2023/02/25 19:01:02;;;;;;;3.73;1.60;;;2.80;1.00;;;;;;5054838;28;20225;-82
2023/02/25 19:04:02;;;;;;;1.80;1.10;;;2.70;1.00;;;;;;5066586;28;20414;-79
2023/02/25 19:06:32;;;;;;;2.38;1.38;;;2.60;1.00;;;;;;5070488;28;20194;-78
2023/02/25 19:09:02;;;;;;;2.35;0.90;;;2.60;1.00;;;;;;5072122;28;20172;-78
2023/02/25 19:11:35;;;;;;;3.63;1.08;;;2.50;1.00;;;;;;5072201;28;20178;-78
2023/02/25 19:14:03;;;;;;;7.20;1.08;;;2.40;1.00;;;;;;5069219;28;20569;-78
2023/02/25 19:17:02;;;;;;;2.05;1.38;;;2.30;1.00;;;;;;5073268;28;20182;-78
2023/02/25 19:19:32;;;;;;;4.95;1.27;;;2.20;1.00;;;;;;5063376;28;20179;-77
2023/02/25 19:22:02;;;;;;;1.60;1.50;;;2.10;1.00;;;;;;5076889;28;20180;-78
2023/02/25 19:24:33;;;;;;;7.25;1.80;;;2.00;1.00;;;;;;5076723;28;20182;-77
2023/02/25 19:26:59;;;;;;;1.75;1.20;;;1.90;1.00;;;;;;5076986;28;20534;-77
2023/02/25 19:29:45;;;;;;;5.90;1.70;;;1.90;1.00;;;;;;5072939;28;20178;-76
2023/02/25 19:32:32;;;;;;;1.92;1.30;;;1.80;1.00;;;;;;5068908;28;20190;-76
2023/02/25 19:35:03;;;;;;;1.33;1.23;;;1.80;1.00;;;;;;5065677;28;20205;-79
2023/02/25 19:37:56;;;;;;;3.85;1.63;;;1.70;1.00;;;;;;5074507;28;20171;-78
2023/02/25 19:40:33;;;;;;;5.50;2.10;;;1.60;1.00;;;;;;5045407;28;20204;-78
2023/02/25 19:43:03;;;;;;;2.10;1.42;;;1.70;1.00;;;;;;5066922;28;20180;-78
2023/02/25 19:45:33;;;;;;;3.90;1.85;;;1.70;1.00;;;;;;5068807;28;20721;-78
2023/02/25 19:48:32;;;;;;;1.85;1.40;;;1.80;1.00;;;;;;5074923;28;20229;-76
2023/02/25 19:51:32;;;;;;;4.38;1.50;;;1.80;1.00;;;;;;5063462;28;20274;-76
2023/02/25 19:54:02;;;;;;;1.45;1.35;;;1.70;1.00;;;;;;5076131;28;20170;-78
2023/02/25 19:56:32;;;;;;;1.70;1.60;;;1.80;1.00;;;;;;5076297;28;20641;-78
2023/02/25 19:59:03;;;;;;;1.85;1.75;;;1.70;1.00;;;;;;5074970;28;20236;-77
2023/02/25 20:01:33;;;;;;;1.92;1.60;;;1.80;1.00;;;;;;5075801;28;20681;-78
2023/02/25 20:04:03;;;;;;;3.17;1.88;;;1.70;1.00;;;;;;5076141;28;20162;-78
2023/02/25 20:07:02;;;;;;;2.75;2.17;;;1.70;1.00;;;;;;5075575;28;20250;-78
2023/02/25 20:09:32;;;;;;;3.58;1.42;;;1.70;1.00;;;;;;5080414;28;20225;-78
2023/02/25 20:12:03;;;;;;;1.83;1.73;;;1.60;1.00;;;;;;5075183;28;20175;-77
2023/02/25 20:14:32;;;;;;;1.95;1.85;;;1.60;1.00;;;;;;5068512;28;20218;-76
2023/02/25 20:17:03;;;;;;;4.32;2.10;;;1.50;1.00;;;;;;5059759;28;20184;-76
2023/02/25 20:19:33;;;;;;;1.80;1.52;;;1.60;1.00;;;;;;5070672;28;20167;-75
2023/02/25 20:22:09;;;;;;;2.53;1.85;;;1.70;1.00;;;;;;5075678;28;20189;-75
2023/02/25 20:24:46;;;;;;;3.55;1.70;;;1.70;1.00;;;;;;5075745;28;20174;-75
2023/02/25 20:27:26;;;;;;;3.75;1.40;;;1.60;1.00;;;;;;5067570;28;20699;-74